Terminal Aerodrome Forecast
Issued by NWS Boise, ID

Home | Current Version | Previous Version | Text Only | Print | Product List | Glossary On
Versions: 1 2 3 4 5 6 7 8 9 10 11 12 13 14 15
000
FTUS45 KBOI 301726
TAFBNO
TAF
KBNO 301726Z 3018/3118 07007KT P6SM BKN200
     FM310500 VRB05KT P6SM BKN100
     FM311500 16007KT P6SM OVC050=

USA.gov is the U.S. government's official web portal to all federal, state and local government web resources and services.